createdAt,value
2019-01-18T00:00:00.086Z,1.08
2019-01-18T00:00:59.966Z,1.13
2019-01-18T00:01:59.960Z,1.07
2019-01-18T00:02:59.927Z,1.08
2019-01-18T00:03:59.981Z,1.10
2019-01-18T00:04:59.840Z,1.10
2019-01-18T00:06:00.909Z,1.07
2019-01-18T00:06:59.782Z,1.06
2019-01-18T00:07:59.795Z,1.04
2019-01-18T00:08:59.714Z,1.13
2019-01-18T00:09:59.706Z,1.04
2019-01-18T00:10:59.663Z,1.08
2019-01-18T00:11:59.729Z,1.06
2019-01-18T00:12:59.582Z,1.11
2019-01-18T00:13:59.637Z,1.14
2019-01-18T00:14:59.531Z,1.06
2019-01-18T00:15:59.554Z,1.17
2019-01-18T00:16:59.451Z,1.08
2019-01-18T00:17:59.460Z,1.11
2019-01-18T00:18:59.395Z,1.14
2019-01-18T00:19:59.372Z,1.13
2019-01-18T00:20:59.320Z,1.04
2019-01-18T00:21:59.301Z,1.13
2019-01-18T00:22:59.269Z,1.11
2019-01-18T00:23:59.219Z,1.04
2019-01-18T00:24:59.200Z,1.10
2019-01-18T00:25:59.165Z,1.04
2019-01-18T00:26:59.122Z,1.18
2019-01-18T00:27:59.106Z,1.10
2019-01-18T00:28:59.065Z,1.14
2019-01-18T00:29:59.048Z,1.17
2019-01-18T00:30:59.011Z,1.20
2019-01-18T00:31:58.988Z,1.11
2019-01-18T00:32:59.024Z,1.13
2019-01-18T00:33:58.894Z,1.11
2019-01-18T00:34:58.959Z,1.20
2019-01-18T00:35:58.846Z,1.20
2019-01-18T00:36:58.849Z,1.14
2019-01-18T00:37:58.778Z,1.24
2019-01-18T00:38:58.824Z,1.16
2019-01-18T00:39:58.706Z,1.20
2019-01-18T00:40:58.743Z,1.10
2019-01-18T00:41:58.641Z,1.16
2019-01-18T00:42:58.666Z,1.16
2019-01-18T00:43:58.583Z,1.16
2019-01-18T00:44:58.563Z,1.04
2019-01-18T00:45:58.515Z,1.11
2019-01-18T00:46:58.575Z,1.16
2019-01-18T00:47:58.449Z,1.02
2019-01-18T00:48:58.485Z,1.13
2019-01-18T00:49:58.379Z,1.04
2019-01-18T00:50:58.411Z,1.08
2019-01-18T00:51:58.324Z,1.06
2019-01-18T00:52:58.312Z,1.07
2019-01-18T00:53:58.256Z,1.14
2019-01-18T00:54:58.319Z,1.06
2019-01-18T00:55:58.194Z,1.10
2019-01-18T00:56:58.204Z,1.08
2019-01-18T00:57:58.124Z,1.08
2019-01-18T00:58:58.118Z,1.00
2019-01-18T00:59:58.078Z,1.04
2019-01-18T01:00:58.022Z,1.02
2019-01-18T01:01:57.994Z,0.98
2019-01-18T01:02:58.038Z,1.02
2019-01-18T01:03:57.932Z,1.04
2019-01-18T01:04:58.002Z,1.10
2019-01-18T01:05:57.863Z,0.92
2019-01-18T01:06:57.914Z,0.98
2019-01-18T01:07:57.802Z,0.95
2019-01-18T01:08:57.827Z,0.92
2019-01-18T01:09:57.731Z,0.84
2019-01-18T01:10:57.738Z,0.86
2019-01-18T01:11:57.672Z,0.88
2019-01-18T01:12:57.748Z,0.88
2019-01-18T01:13:57.601Z,0.88
2019-01-18T01:14:57.661Z,0.88
2019-01-18T01:15:57.544Z,0.84
2019-01-18T01:16:57.503Z,0.82
2019-01-18T01:17:57.484Z,0.86
2019-01-18T01:18:57.467Z,0.82
2019-01-18T01:19:57.422Z,0.90
2019-01-18T01:20:57.380Z,0.88
2019-01-18T01:21:57.389Z,0.80
2019-01-18T01:22:57.333Z,0.82
2019-01-18T01:23:57.293Z,0.77
2019-01-18T01:24:57.270Z,0.88
2019-01-18T01:25:57.226Z,0.80
2019-01-18T01:26:57.198Z,0.74
2019-01-18T01:27:57.176Z,0.77
2019-01-18T01:28:57.145Z,0.80
2019-01-18T01:29:57.110Z,0.75
2019-01-18T01:30:57.080Z,0.78
2019-01-18T01:31:57.035Z,0.72
2019-01-18T01:32:57.050Z,0.81
2019-01-18T01:33:56.957Z,0.77
2019-01-18T01:34:57.940Z,0.75
2019-01-18T01:35:56.895Z,0.75
2019-01-18T01:36:56.885Z,0.75
2019-01-18T01:37:56.853Z,0.80
2019-01-18T01:38:56.822Z,0.77
2019-01-18T01:39:56.770Z,0.78
2019-01-18T01:40:56.749Z,0.70
2019-01-18T01:41:56.709Z,0.78
2019-01-18T01:42:56.686Z,0.86
2019-01-18T01:43:56.648Z,0.78
2019-01-18T01:44:56.627Z,0.72
2019-01-18T01:45:56.587Z,0.72
2019-01-18T01:46:56.537Z,0.71
2019-01-18T01:47:56.514Z,0.82
2019-01-18T01:48:56.478Z,0.77
2019-01-18T01:49:56.453Z,0.78
2019-01-18T01:50:56.413Z,0.80
2019-01-18T01:51:56.367Z,0.81
2019-01-18T01:52:56.372Z,0.80
2019-01-18T01:53:56.334Z,0.81
2019-01-18T01:54:56.294Z,0.71
2019-01-18T01:55:56.253Z,0.80
2019-01-18T01:56:56.223Z,0.74
2019-01-18T01:57:56.189Z,0.84
2019-01-18T01:58:56.177Z,0.80
2019-01-18T01:59:56.120Z,0.78
2019-01-18T02:00:56.081Z,0.77
2019-01-18T02:01:56.069Z,0.78
2019-01-18T02:02:56.075Z,0.74
2019-01-18T02:03:55.993Z,0.74
2019-01-18T02:04:55.990Z,0.77
2019-01-18T02:05:55.943Z,0.68
2019-01-18T02:06:56.003Z,0.74
2019-01-18T02:07:55.873Z,0.75
2019-01-18T02:08:55.904Z,0.72
2019-01-18T02:09:55.812Z,0.72
2019-01-18T02:10:55.822Z,0.74
2019-01-18T02:11:55.732Z,0.74
2019-01-18T02:12:55.735Z,0.62
2019-01-18T02:13:55.664Z,0.60
2019-01-18T02:14:55.666Z,0.64
2019-01-18T02:15:55.650Z,0.57
2019-01-18T02:16:55.565Z,0.49
2019-01-18T02:17:55.562Z,0.51
2019-01-18T02:18:55.507Z,0.48
2019-01-18T02:19:55.573Z,0.41
2019-01-18T02:20:55.440Z,0.37
2019-01-18T02:21:55.486Z,0.41
2019-01-18T02:22:55.374Z,0.38
2019-01-18T02:23:55.402Z,0.30
2019-01-18T02:24:55.301Z,0.35
2019-01-18T02:25:55.336Z,0.45
2019-01-18T02:26:55.231Z,0.34
2019-01-18T02:27:55.223Z,0.33
2019-01-18T02:28:55.173Z,0.23
2019-01-18T02:29:56.790Z,0.31
2019-01-18T02:30:55.111Z,0.25
2019-01-18T02:31:55.162Z,0.26
2019-01-18T02:32:55.095Z,0.25
2019-01-18T02:33:55.108Z,0.28
2019-01-18T02:34:54.977Z,0.28
2019-01-18T02:35:54.964Z,0.17
2019-01-18T02:36:54.928Z,0.17
2019-01-18T02:37:54.931Z,0.20
2019-01-18T02:38:54.862Z,0.17
2019-01-18T02:39:54.848Z,0.12
2019-01-18T02:40:54.798Z,-0.02
2019-01-18T02:41:54.854Z,0.04
2019-01-18T02:42:54.727Z,-0.03
2019-01-18T02:43:54.786Z,-0.05
2019-01-18T02:44:54.657Z,-0.08
2019-01-18T02:45:54.681Z,-0.23
2019-01-18T02:46:54.594Z,-0.12
2019-01-18T02:47:54.586Z,-0.30
2019-01-18T02:48:54.539Z,-0.23
2019-01-18T02:49:54.615Z,-0.23
2019-01-18T02:50:55.954Z,-0.26
2019-01-18T02:51:54.476Z,-0.24
2019-01-18T02:52:54.400Z,-0.31
2019-01-18T02:53:54.383Z,-0.35
2019-01-18T02:54:54.369Z,-0.35
2019-01-18T02:55:54.405Z,-0.38
2019-01-18T02:56:54.277Z,-0.41
2019-01-18T02:57:54.305Z,-0.41
2019-01-18T02:58:54.197Z,-0.39
2019-01-18T02:59:54.215Z,-0.59
2019-01-18T03:00:54.131Z,-0.52
2019-01-18T03:01:54.128Z,-0.50
2019-01-18T03:02:54.070Z,-0.53
2019-01-18T03:03:54.137Z,-0.58
2019-01-18T03:04:54.012Z,-0.62
2019-01-18T03:05:54.049Z,-0.65
2019-01-18T03:06:53.948Z,-0.56
2019-01-18T03:07:53.957Z,-0.56
2019-01-18T03:08:53.866Z,-0.63
2019-01-18T03:09:53.875Z,-0.68
2019-01-18T03:10:53.801Z,-0.80
2019-01-18T03:11:53.890Z,-0.80
2019-01-18T03:12:53.739Z,-0.74
2019-01-18T03:13:53.793Z,-0.74
2019-01-18T03:14:53.679Z,-0.76
2019-01-18T03:15:53.724Z,-0.80
2019-01-18T03:16:53.609Z,-0.65
2019-01-18T03:17:53.621Z,-0.70
2019-01-18T03:18:53.548Z,-0.68
2019-01-18T03:19:53.539Z,-0.67
2019-01-18T03:20:53.487Z,-0.67
2019-01-18T03:21:53.554Z,-0.71
2019-01-18T03:22:53.408Z,-0.63
2019-01-18T03:23:53.460Z,-0.62
2019-01-18T03:24:53.354Z,-0.59
2019-01-18T03:25:53.367Z,-0.49
2019-01-18T03:26:53.286Z,-0.55
2019-01-18T03:27:53.277Z,-0.50
2019-01-18T03:28:53.220Z,-0.58
2019-01-18T03:29:53.292Z,-0.56
2019-01-18T03:30:53.167Z,-0.53
2019-01-18T03:31:53.215Z,-0.49
2019-01-18T03:32:53.127Z,-0.49
2019-01-18T03:33:53.115Z,-0.45
2019-01-18T03:34:53.027Z,-0.44
2019-01-18T03:35:53.036Z,-0.42
2019-01-18T03:36:53.038Z,-0.50
2019-01-18T03:37:52.930Z,-0.45
2019-01-18T03:38:52.953Z,-0.42
2019-01-18T03:39:52.862Z,-0.49
2019-01-18T03:40:52.863Z,-0.50
2019-01-18T03:41:52.803Z,-0.47
2019-01-18T03:42:52.885Z,-0.49
2019-01-18T03:43:52.732Z,-0.47
2019-01-18T03:44:52.789Z,-0.53
2019-01-18T03:45:52.663Z,-0.49
2019-01-18T03:46:52.704Z,-0.53
2019-01-18T03:47:52.607Z,-0.50
2019-01-18T03:48:52.615Z,-0.63
2019-01-18T03:49:52.532Z,-0.52
2019-01-18T03:50:52.516Z,-0.59
2019-01-18T03:51:52.491Z,-0.62
2019-01-18T03:52:52.534Z,-0.62
2019-01-18T03:53:52.412Z,-0.62
2019-01-18T03:54:52.448Z,-0.56
2019-01-18T03:55:52.349Z,-0.65
2019-01-18T03:56:52.359Z,-0.59
2019-01-18T03:57:52.272Z,-0.74
2019-01-18T03:58:52.262Z,-0.68
2019-01-18T03:59:52.207Z,-0.63
2019-01-18T04:00:52.284Z,-0.77
2019-01-18T04:01:52.168Z,-0.68
2019-01-18T04:02:52.186Z,-0.76
2019-01-18T04:03:52.079Z,-0.71
2019-01-18T04:04:52.074Z,-0.63
2019-01-18T04:05:52.014Z,-0.70
2019-01-18T04:06:51.981Z,-0.63
2019-01-18T04:07:51.948Z,-0.63
2019-01-18T04:08:52.003Z,-0.63
2019-01-18T04:09:51.897Z,-0.58
2019-01-18T04:10:51.900Z,-0.63
2019-01-18T04:11:51.821Z,-0.71
2019-01-18T04:12:51.824Z,-0.68
2019-01-18T04:13:51.750Z,-0.70
2019-01-18T04:14:51.824Z,-0.74
2019-01-18T04:15:51.683Z,-0.60
2019-01-18T04:16:51.736Z,-0.60
2019-01-18T04:17:51.634Z,-0.76
2019-01-18T04:18:51.647Z,-0.73
2019-01-18T04:19:51.560Z,-0.68
2019-01-18T04:20:51.569Z,-0.76
2019-01-18T04:21:51.486Z,-0.77
2019-01-18T04:22:51.479Z,-0.81
2019-01-18T04:23:51.421Z,-0.93
2019-01-18T04:24:51.484Z,-0.83
2019-01-18T04:25:51.357Z,-1.02
2019-01-18T04:26:51.396Z,-0.83
2019-01-18T04:27:51.293Z,-0.99
2019-01-18T04:28:51.311Z,-0.96
2019-01-18T04:29:51.230Z,-0.95
2019-01-18T04:30:51.229Z,-0.85
2019-01-18T04:31:51.163Z,-0.85
2019-01-18T04:32:51.239Z,-0.92
2019-01-18T04:33:51.094Z,-0.95
2019-01-18T04:34:51.090Z,-0.97
2019-01-18T04:35:51.032Z,-0.92
2019-01-18T04:36:51.119Z,-0.97
2019-01-18T04:37:50.976Z,-1.03
2019-01-18T04:38:51.018Z,-1.05
2019-01-18T04:39:50.892Z,-1.08
2019-01-18T04:40:50.927Z,-0.96
2019-01-18T04:41:50.833Z,-0.99
2019-01-18T04:42:50.842Z,-1.07
2019-01-18T04:43:50.768Z,-0.99
2019-01-18T04:44:50.756Z,-1.00
2019-01-18T04:45:50.704Z,-1.13
2019-01-18T04:46:50.773Z,-1.07
2019-01-18T04:47:50.637Z,-1.05
2019-01-18T04:48:50.686Z,-1.10
2019-01-18T04:49:50.569Z,-1.13
2019-01-18T04:50:50.547Z,-1.10
2019-01-18T04:51:50.511Z,-1.14
2019-01-18T04:52:50.485Z,-1.07
2019-01-18T04:53:50.445Z,-1.18
2019-01-18T04:54:50.410Z,-1.13
2019-01-18T04:55:50.383Z,-1.11
2019-01-18T04:56:50.345Z,-1.18
2019-01-18T04:57:50.307Z,-1.08
2019-01-18T04:58:50.273Z,-1.07
2019-01-18T04:59:50.246Z,-1.07
2019-01-18T05:00:50.216Z,-1.10
2019-01-18T05:01:50.213Z,-1.03
2019-01-18T05:02:50.143Z,-1.07
2019-01-18T05:03:50.240Z,-1.05
2019-01-18T05:04:50.080Z,-1.07
2019-01-18T05:05:50.140Z,-1.13
2019-01-18T05:06:50.017Z,-1.15
2019-01-18T05:07:50.050Z,-1.03
2019-01-18T05:08:49.960Z,-1.05
2019-01-18T05:09:49.960Z,-1.07
2019-01-18T05:10:49.884Z,-1.11
2019-01-18T05:11:49.872Z,-1.05
2019-01-18T05:12:49.819Z,-1.02
2019-01-18T05:13:49.890Z,-1.08
2019-01-18T05:14:49.754Z,-1.07
2019-01-18T05:15:49.808Z,-1.11
2019-01-18T05:16:49.690Z,-1.03
2019-01-18T05:17:49.721Z,-0.99
2019-01-18T05:18:49.635Z,-1.03
2019-01-18T05:19:49.626Z,-1.05
2019-01-18T05:20:49.558Z,-1.08
2019-01-18T05:21:49.551Z,-1.03
2019-01-18T05:22:49.489Z,-1.11
2019-01-18T05:23:50.469Z,-1.13
2019-01-18T05:24:49.699Z,-1.07
2019-01-18T05:25:49.396Z,-1.13
2019-01-18T05:26:49.368Z,-1.02
2019-01-18T05:27:49.337Z,-1.17
2019-01-18T05:28:49.298Z,-1.07
2019-01-18T05:29:49.268Z,-1.13
2019-01-18T05:30:49.237Z,-1.08
2019-01-18T05:31:49.201Z,-1.20
2019-01-18T05:32:49.165Z,-1.21
2019-01-18T05:33:49.141Z,-1.29
2019-01-18T05:34:49.093Z,-1.11
2019-01-18T05:35:49.068Z,-1.13
2019-01-18T05:36:49.029Z,-1.14
2019-01-18T05:37:50.047Z,-1.20
2019-01-18T05:38:48.972Z,-1.28
2019-01-18T05:39:48.936Z,-1.25
2019-01-18T05:40:48.899Z,-1.18
2019-01-18T05:41:48.868Z,-1.21
2019-01-18T05:42:48.841Z,-1.29
2019-01-18T05:43:48.806Z,-1.33
2019-01-18T05:44:48.773Z,-1.21
2019-01-18T05:45:48.740Z,-1.26
2019-01-18T05:46:48.709Z,-1.31
2019-01-18T05:47:48.680Z,-1.29
2019-01-18T05:48:48.634Z,-1.31
2019-01-18T05:49:48.609Z,-1.38
2019-01-18T05:50:48.575Z,-1.39
2019-01-18T05:51:48.541Z,-1.33
2019-01-18T05:52:48.505Z,-1.39
2019-01-18T05:53:48.483Z,-1.33
2019-01-18T05:54:48.439Z,-1.43
2019-01-18T05:55:49.416Z,-1.36
2019-01-18T05:56:48.378Z,-1.41
2019-01-18T05:57:49.347Z,-1.41
2019-01-18T05:58:48.319Z,-1.51
2019-01-18T05:59:48.283Z,-1.44
2019-01-18T06:00:54.950Z,-1.44
2019-01-18T06:01:48.227Z,-1.43
2019-01-18T06:02:48.178Z,-1.43
2019-01-18T06:03:48.152Z,-1.43
2019-01-18T06:04:48.113Z,-1.46
2019-01-18T06:05:48.077Z,-1.44
2019-01-18T06:06:48.046Z,-1.43
2019-01-18T06:07:48.015Z,-1.44
2019-01-18T06:08:47.983Z,-1.39
2019-01-18T06:09:47.954Z,-1.41
2019-01-18T06:10:47.915Z,-1.39
2019-01-18T06:11:47.887Z,-1.33
2019-01-18T06:12:47.847Z,-1.43
2019-01-18T06:13:47.819Z,-1.31
2019-01-18T06:14:47.779Z,-1.38
2019-01-18T06:15:47.753Z,-1.41
2019-01-18T06:16:47.723Z,-1.43
2019-01-18T06:17:47.687Z,-1.39
2019-01-18T06:18:47.648Z,-1.56
2019-01-18T06:19:47.623Z,-1.53
2019-01-18T06:20:47.584Z,-1.41
2019-01-18T06:21:48.556Z,-1.50
2019-01-18T06:22:47.520Z,-1.50
2019-01-18T06:23:47.486Z,-1.61
2019-01-18T06:24:47.466Z,-1.57
2019-01-18T06:25:47.422Z,-1.57
2019-01-18T06:26:47.385Z,-1.61
2019-01-18T06:27:47.361Z,-1.67
2019-01-18T06:28:47.320Z,-1.61
2019-01-18T06:29:47.304Z,-1.67
2019-01-18T06:30:47.255Z,-1.62
2019-01-18T06:31:47.234Z,-1.56
2019-01-18T06:32:47.198Z,-1.59
2019-01-18T06:33:47.167Z,-1.61
2019-01-18T06:34:47.141Z,-1.54
2019-01-18T06:35:47.093Z,-1.64
2019-01-18T06:36:47.063Z,-1.53
2019-01-18T06:37:47.029Z,-1.53
2019-01-18T06:38:46.993Z,-1.57
2019-01-18T06:39:46.963Z,-1.53
2019-01-18T06:40:46.936Z,-1.51
2019-01-18T06:41:46.914Z,-1.59
2019-01-18T06:42:46.870Z,-1.61
2019-01-18T06:43:46.830Z,-1.54
2019-01-18T06:44:46.792Z,-1.51
2019-01-18T06:45:46.789Z,-1.51
2019-01-18T06:46:46.733Z,-1.61
2019-01-18T06:47:46.707Z,-1.56
2019-01-18T06:48:46.667Z,-1.56
2019-01-18T06:49:46.622Z,-1.56
2019-01-18T06:50:46.605Z,-1.47
2019-01-18T06:51:46.569Z,-1.61
2019-01-18T06:52:46.530Z,-1.59
2019-01-18T06:53:46.498Z,-1.64
2019-01-18T06:54:46.468Z,-1.56
2019-01-18T06:55:46.445Z,-1.56
2019-01-18T06:56:46.402Z,-1.50
2019-01-18T06:57:46.362Z,-1.59
2019-01-18T06:58:46.338Z,-1.56
2019-01-18T06:59:46.306Z,-1.62
2019-01-18T07:00:46.289Z,-1.56
2019-01-18T07:01:46.244Z,-1.57
2019-01-18T07:02:46.232Z,-1.68
2019-01-18T07:03:46.170Z,-1.71
2019-01-18T07:04:46.149Z,-1.64
2019-01-18T07:05:46.115Z,-1.68
2019-01-18T07:06:46.069Z,-1.74
2019-01-18T07:07:46.037Z,-1.62
2019-01-18T07:08:46.000Z,-1.72
2019-01-18T07:09:45.972Z,-1.70
2019-01-18T07:10:45.941Z,-1.67
2019-01-18T07:11:45.952Z,-1.70
2019-01-18T07:12:45.883Z,-1.72
2019-01-18T07:13:45.855Z,-1.57
2019-01-18T07:14:45.871Z,-1.64
2019-01-18T07:15:45.774Z,-1.70
2019-01-18T07:16:45.781Z,-1.64
2019-01-18T07:17:45.750Z,-1.67
2019-01-18T07:18:45.680Z,-1.74
2019-01-18T07:19:45.644Z,-1.77
2019-01-18T07:20:45.611Z,-1.77
2019-01-18T07:21:45.587Z,-1.54
2019-01-18T07:22:45.548Z,-1.71
2019-01-18T07:23:45.513Z,-1.61
2019-01-18T07:24:45.473Z,-1.68
2019-01-18T07:25:45.442Z,-1.61
2019-01-18T07:26:45.438Z,-1.59
2019-01-18T07:27:45.382Z,-1.61
2019-01-18T07:28:45.473Z,-1.59
2019-01-18T07:29:45.340Z,-1.64
2019-01-18T07:30:45.369Z,-1.53
2019-01-18T07:31:45.253Z,-1.62
2019-01-18T07:32:45.252Z,-1.62
2019-01-18T07:33:45.183Z,-1.50
2019-01-18T07:34:45.141Z,-1.53
2019-01-18T07:35:45.118Z,-1.62
2019-01-18T07:36:45.100Z,-1.67
2019-01-18T07:37:45.072Z,-1.54
2019-01-18T07:38:45.091Z,-1.64
2019-01-18T07:39:44.995Z,-1.64
2019-01-18T07:40:45.164Z,-1.59
2019-01-18T07:41:44.943Z,-1.64
2019-01-18T07:42:45.140Z,-1.67
2019-01-18T07:43:44.889Z,-1.62
2019-01-18T07:44:45.994Z,-1.57
2019-01-18T07:45:44.808Z,-1.65
2019-01-18T07:46:44.780Z,-1.62
2019-01-18T07:47:45.800Z,-1.70
2019-01-18T07:48:44.700Z,-1.72
2019-01-18T07:49:44.770Z,-1.72
2019-01-18T07:50:44.627Z,-1.72
2019-01-18T07:51:44.690Z,-1.77
2019-01-18T07:52:44.590Z,-1.67
2019-01-18T07:53:44.603Z,-1.62
2019-01-18T07:54:44.791Z,-1.61
2019-01-18T07:55:44.491Z,-1.71
2019-01-18T07:56:44.470Z,-1.67
2019-01-18T07:57:44.393Z,-1.56
2019-01-18T07:58:44.354Z,-1.62
2019-01-18T07:59:44.325Z,-1.64
2019-01-18T08:00:44.338Z,-1.59
2019-01-18T08:01:44.269Z,-1.62
2019-01-18T08:02:44.229Z,-1.68
2019-01-18T08:03:44.280Z,-1.65
2019-01-18T08:04:44.174Z,-1.61
2019-01-18T08:05:45.216Z,-1.59
2019-01-18T08:06:44.140Z,-1.47
2019-01-18T08:07:44.187Z,-1.57
2019-01-18T08:08:44.068Z,-1.59
2019-01-18T08:09:44.112Z,-1.50
2019-01-18T08:10:43.985Z,-1.56
2019-01-18T08:11:43.940Z,-1.35
2019-01-18T08:12:43.987Z,-1.36
2019-01-18T08:13:43.900Z,-1.28
2019-01-18T08:14:43.921Z,-1.35
2019-01-18T08:15:43.829Z,-1.35
2019-01-18T08:16:44.865Z,-1.35
2019-01-18T08:17:43.790Z,-1.38
2019-01-18T08:18:43.760Z,-1.36
2019-01-18T08:19:43.736Z,-1.38
2019-01-18T08:20:43.766Z,-1.32
2019-01-18T08:21:43.591Z,-1.33
2019-01-18T08:22:43.557Z,-1.32
2019-01-18T08:23:43.568Z,-1.36
2019-01-18T08:24:43.495Z,-1.32
2019-01-18T08:25:43.543Z,-1.36
2019-01-18T08:26:43.429Z,-1.35
2019-01-18T08:27:43.452Z,-1.38
2019-01-18T08:28:43.363Z,-1.39
2019-01-18T08:29:43.353Z,-1.35
2019-01-18T08:30:43.325Z,-1.38
2019-01-18T08:31:43.422Z,-1.41
2019-01-18T08:32:43.307Z,-1.28
2019-01-18T08:33:43.299Z,-1.31
2019-01-18T08:34:43.231Z,-1.28
2019-01-18T08:35:43.164Z,-1.29
2019-01-18T08:36:43.229Z,-1.23
2019-01-18T08:37:44.218Z,-1.21
2019-01-18T08:38:43.049Z,-1.25
2019-01-18T08:39:43.160Z,-1.20
2019-01-18T08:40:42.999Z,-1.25
2019-01-18T08:41:43.159Z,-1.36
2019-01-18T08:42:42.919Z,-1.18
2019-01-18T08:43:42.979Z,-1.25
2019-01-18T08:44:42.859Z,-1.21
2019-01-18T08:45:42.873Z,-1.20
2019-01-18T08:46:42.773Z,-1.11
2019-01-18T08:47:42.742Z,-1.11
2019-01-18T08:48:42.697Z,-1.15
2019-01-18T08:49:42.801Z,-1.15
2019-01-18T08:50:42.646Z,-1.14
2019-01-18T08:51:42.700Z,-1.02
2019-01-18T08:52:42.565Z,-1.00
2019-01-18T08:53:42.613Z,-1.07
2019-01-18T08:54:42.524Z,-1.07
2019-01-18T08:55:42.469Z,-1.05
2019-01-18T08:56:42.451Z,-1.13
2019-01-18T08:57:42.427Z,-1.07
2019-01-18T08:58:42.438Z,-0.93
2019-01-18T08:59:42.350Z,-0.96
2019-01-18T09:00:42.364Z,-0.92
2019-01-18T09:01:42.293Z,-0.81
2019-01-18T09:02:42.269Z,-0.89
2019-01-18T09:03:42.212Z,-0.89
2019-01-18T09:04:42.297Z,-0.80
2019-01-18T09:05:42.156Z,-0.80
2019-01-18T09:06:42.212Z,-0.80
2019-01-18T09:07:42.087Z,-0.77
2019-01-18T09:08:42.098Z,-0.81
2019-01-18T09:09:42.052Z,-0.80
2019-01-18T09:10:42.007Z,-0.78
2019-01-18T09:11:42.035Z,-0.76
2019-01-18T09:12:41.965Z,-0.73
2019-01-18T09:13:41.952Z,-0.71
2019-01-18T09:14:41.919Z,-0.59
2019-01-18T09:15:43.916Z,-0.67
2019-01-18T09:16:41.819Z,-0.59
2019-01-18T09:17:41.869Z,-0.52
2019-01-18T09:18:41.775Z,-0.59
2019-01-18T09:19:41.779Z,-0.53
2019-01-18T09:20:41.657Z,-0.56
2019-01-18T09:21:41.680Z,-0.55
2019-01-18T09:22:41.591Z,-0.50
2019-01-18T09:23:41.596Z,-0.50
2019-01-18T09:24:41.529Z,-0.38
2019-01-18T09:25:41.593Z,-0.50
2019-01-18T09:26:41.581Z,-0.41
2019-01-18T09:27:41.571Z,-0.34
2019-01-18T09:28:41.441Z,-0.35
2019-01-18T09:29:41.453Z,-0.26
2019-01-18T09:30:41.360Z,-0.20
2019-01-18T09:31:42.661Z,-0.08
2019-01-18T09:32:41.268Z,-0.20
2019-01-18T09:33:41.252Z,-0.17
2019-01-18T09:34:41.258Z,-0.03
2019-01-18T09:35:41.195Z,-0.06
2019-01-18T09:36:41.192Z,-0.09
2019-01-18T09:37:43.156Z,-0.01
2019-01-18T09:38:41.063Z,-0.13
2019-01-18T09:40:03.127Z,-0.03
2019-01-18T09:40:40.990Z,0.05
2019-01-18T09:41:49.631Z,0.01
2019-01-18T09:42:40.942Z,0.02
2019-01-18T09:43:40.918Z,0.07
2019-01-18T09:44:57.655Z,0.07
2019-01-18T09:45:40.841Z,0.17
2019-01-18T09:46:41.868Z,0.16
2019-01-18T09:47:40.770Z,0.20
2019-01-18T10:06:59.907Z,0.88
2019-01-18T10:07:58.122Z,0.89
2019-01-18T10:08:58.099Z,1.08
2019-01-18T10:09:58.032Z,1.07
2019-01-18T10:10:58.014Z,1.06
2019-01-18T10:11:57.958Z,1.04
2019-01-18T10:12:58.039Z,1.00
2019-01-18T10:13:57.895Z,1.04
2019-01-18T10:14:57.934Z,1.14
2019-01-18T10:15:57.829Z,1.18
2019-01-18T10:16:57.846Z,1.20
2019-01-18T10:18:00.715Z,1.16
2019-01-18T10:18:57.767Z,1.29
2019-01-18T10:19:57.699Z,1.29
2019-01-18T10:20:57.773Z,1.42
2019-01-18T10:21:57.631Z,1.36
2019-01-18T10:22:57.683Z,1.50
2019-01-18T10:23:57.572Z,1.56
2019-01-18T10:24:57.601Z,1.49
2019-01-18T10:25:57.500Z,1.49
2019-01-18T10:26:57.507Z,1.60
2019-01-18T10:27:57.452Z,1.52
2019-01-18T10:28:57.434Z,1.47
2019-01-18T10:29:57.365Z,1.57
2019-01-18T10:30:57.443Z,1.63
2019-01-18T10:31:57.323Z,1.61
2019-01-18T10:32:57.293Z,1.65
2019-01-18T10:33:57.279Z,1.67
2019-01-18T10:34:57.233Z,1.81
2019-01-18T10:35:57.267Z,1.93
2019-01-18T10:36:57.154Z,1.98
2019-01-18T10:37:57.188Z,2.00
2019-01-18T10:38:57.200Z,2.05
2019-01-18T10:39:57.081Z,2.05
2019-01-18T10:40:57.023Z,2.05
2019-01-18T10:41:56.994Z,2.11
2019-01-18T10:42:56.950Z,2.05
2019-01-18T10:43:57.010Z,2.15
2019-01-18T10:44:56.877Z,2.07
2019-01-18T10:45:56.935Z,2.04
2019-01-18T10:46:56.820Z,2.02
2019-01-18T10:47:56.830Z,2.08
2019-01-18T10:48:56.751Z,2.12
2019-01-18T10:49:57.763Z,2.05
2019-01-18T10:50:56.717Z,2.00
2019-01-18T10:51:56.826Z,2.08
2019-01-18T10:52:56.632Z,2.20
2019-01-18T10:53:56.680Z,2.05
2019-01-18T10:54:56.568Z,2.08
2019-01-18T10:55:56.537Z,2.02
2019-01-18T10:56:56.507Z,2.04
2019-01-18T10:57:56.463Z,2.09
2019-01-18T10:58:56.428Z,2.19
2019-01-18T10:59:56.507Z,2.15
2019-01-18T11:00:56.380Z,2.26
2019-01-18T11:02:00.794Z,2.33
2019-01-18T11:02:56.302Z,2.30
2019-01-18T11:03:56.282Z,2.41
2019-01-18T11:04:56.361Z,2.48
2019-01-18T11:05:56.214Z,2.47
2019-01-18T11:06:56.256Z,2.45
2019-01-18T11:07:56.138Z,2.55
2019-01-18T11:08:56.175Z,2.63
2019-01-18T11:09:56.089Z,2.61
2019-01-18T11:10:56.123Z,2.59
2019-01-18T11:11:56.045Z,2.63
2019-01-18T11:12:56.085Z,2.62
2019-01-18T11:13:55.961Z,2.61
2019-01-18T11:14:56.014Z,2.65
2019-01-18T11:15:55.893Z,2.80
2019-01-18T11:16:55.843Z,2.80
2019-01-18T11:17:55.827Z,2.87
2019-01-18T11:18:55.832Z,2.83
2019-01-18T11:19:55.771Z,2.90
2019-01-18T11:20:55.845Z,2.89
2019-01-18T11:21:55.702Z,2.92
2019-01-18T11:22:55.685Z,2.97
2019-01-18T11:23:55.631Z,2.89
2019-01-18T11:24:55.666Z,3.01
2019-01-18T11:25:55.569Z,3.05
2019-01-18T11:26:55.538Z,3.01
2019-01-18T11:27:55.514Z,3.13
2019-01-18T11:28:55.586Z,3.16
2019-01-18T11:29:55.445Z,3.30
2019-01-18T11:30:55.502Z,3.20
2019-01-18T11:31:55.411Z,3.30
2019-01-18T11:32:55.408Z,3.26
2019-01-18T11:33:55.316Z,3.30
2019-01-18T11:34:55.334Z,3.37
2019-01-18T11:35:55.255Z,3.49
2019-01-18T11:36:56.501Z,3.59
2019-01-18T11:37:55.241Z,3.67
2019-01-18T11:38:55.244Z,3.71
2019-01-18T11:39:55.160Z,3.68
2019-01-18T11:40:55.109Z,3.68
2019-01-18T11:41:55.156Z,3.75
2019-01-18T11:42:55.013Z,3.72
2019-01-18T11:43:56.098Z,3.77
2019-01-18T11:44:54.964Z,3.84
2019-01-18T11:45:55.000Z,3.95
2019-01-18T11:46:54.898Z,3.95
2019-01-18T11:47:54.891Z,4.07
2019-01-18T11:48:54.845Z,3.99
2019-01-18T11:49:54.842Z,4.07
2019-01-18T11:50:54.777Z,4.02
2019-01-18T11:51:54.870Z,4.07
2019-01-18T11:52:54.711Z,4.00
2019-01-18T11:53:55.787Z,4.06
2019-01-18T11:54:54.670Z,4.04
2019-01-18T11:55:54.688Z,4.14
2019-01-18T11:56:54.608Z,4.10
2019-01-18T11:57:54.580Z,4.20
2019-01-18T11:58:54.525Z,4.16
2019-01-18T12:00:01.471Z,4.21
2019-01-18T12:00:54.468Z,4.17
2019-01-18T12:01:54.492Z,4.24
2019-01-18T12:02:54.390Z,4.29
2019-01-18T12:03:54.449Z,4.20
2019-01-18T12:04:54.444Z,4.25
2019-01-18T12:06:54.374Z,4.25
2019-01-18T12:07:54.541Z,4.32
2019-01-18T12:08:54.419Z,4.35
2019-01-18T12:10:01.209Z,4.39
2019-01-18T12:10:54.140Z,4.46
2019-01-18T12:19:32.088Z,4.53
2019-01-18T12:20:01.314Z,4.46
2019-01-18T12:21:01.290Z,4.54
2019-01-18T12:22:01.190Z,4.53
2019-01-18T12:23:09.004Z,4.59
2019-01-18T12:24:01.147Z,4.56
2019-01-18T12:25:01.323Z,4.54
2019-01-18T12:26:01.059Z,4.54
2019-01-18T12:27:02.178Z,4.56
2019-01-18T12:28:01.006Z,4.54
2019-01-18T12:29:08.010Z,4.61
2019-01-18T12:30:00.955Z,4.59
2019-01-18T12:31:01.959Z,4.64
2019-01-18T12:32:00.897Z,4.62
2019-01-18T12:33:02.956Z,4.62
2019-01-18T12:34:00.821Z,4.61
2019-01-18T12:35:00.924Z,4.69
2019-01-18T12:36:00.750Z,4.69
2019-01-18T12:37:00.888Z,4.62
2019-01-18T12:38:00.675Z,4.61
2019-01-18T12:39:01.761Z,4.65
2019-01-18T12:40:00.646Z,4.61
2019-01-18T12:41:00.705Z,4.68
2019-01-18T12:42:00.557Z,4.71
2019-01-18T12:43:00.615Z,4.68
2019-01-18T12:44:00.501Z,4.79
2019-01-18T12:45:01.502Z,4.79
2019-01-18T12:46:00.437Z,4.80
2019-01-18T12:47:07.041Z,4.80
2019-01-18T12:48:00.372Z,4.87
2019-01-18T12:49:21.453Z,4.93
2019-01-18T12:50:00.305Z,4.93
2019-01-18T12:51:00.333Z,4.90
2019-01-18T12:52:00.333Z,4.91
2019-01-18T12:53:09.059Z,4.91
2019-01-18T12:54:00.214Z,4.97
2019-01-18T12:55:00.249Z,4.91
2019-01-18T12:56:00.148Z,4.91
2019-01-18T12:57:28.044Z,4.88
2019-01-18T12:58:00.099Z,4.88
2019-01-18T13:00:00.027Z,4.91
2019-01-18T13:01:16.107Z,4.97
2019-01-18T13:01:59.966Z,4.93
2019-01-18T13:03:07.553Z,4.97
2019-01-18T13:03:59.885Z,4.91
2019-01-18T13:05:06.554Z,4.96
2019-01-18T13:05:59.831Z,5.05
2019-01-18T13:07:01.859Z,4.88
2019-01-18T13:07:59.748Z,4.94
2019-01-18T13:09:01.745Z,4.86
2019-01-18T13:09:59.673Z,4.91
2019-01-18T13:10:59.729Z,4.97
2019-01-18T13:11:59.628Z,4.99
2019-01-18T13:13:14.571Z,4.86
2019-01-18T13:13:59.617Z,4.87
2019-01-18T13:15:00.579Z,4.91
2019-01-18T13:15:59.518Z,4.97
2019-01-18T13:16:59.551Z,5.02
2019-01-18T13:17:59.427Z,5.02
2019-01-18T13:18:59.490Z,4.86
2019-01-18T13:19:59.377Z,4.83
2019-01-18T13:21:00.433Z,4.87
2019-01-18T13:21:59.314Z,4.91
2019-01-18T13:22:59.363Z,4.84
2019-01-18T13:23:59.270Z,4.90
2019-01-18T13:24:59.220Z,4.93
2019-01-18T13:25:59.181Z,4.88
2019-01-18T13:26:59.161Z,4.91
2019-01-18T13:28:00.016Z,4.88
2019-01-18T13:28:59.131Z,4.91
2019-01-18T13:29:59.067Z,4.90
2019-01-18T13:30:59.022Z,4.93